sensor_id;sensor_type;location;lat;lon;timestamp;temperature;humidity
68128;SHT30;54931;52.098;21.006;2023-06-26T00:00:35;14.42;75.46
68128;SHT30;54931;52.098;21.006;2023-06-26T00:03:27;14.37;75.67
68128;SHT30;54931;52.098;21.006;2023-06-26T00:05:56;14.32;75.73
68128;SHT30;54931;52.098;21.006;2023-06-26T00:08:27;14.27;75.79
68128;SHT30;54931;52.098;21.006;2023-06-26T00:10:55;14.22;75.73
68128;SHT30;54931;52.098;21.006;2023-06-26T00:13:23;14.17;75.81
68128;SHT30;54931;52.098;21.006;2023-06-26T00:15:51;14.12;75.92
68128;SHT30;54931;52.098;21.006;2023-06-26T00:18:19;14.08;75.92
68128;SHT30;54931;52.098;21.006;2023-06-26T00:20:47;14.06;75.99
68128;SHT30;54931;52.098;21.006;2023-06-26T00:23:16;14.06;76.10
68128;SHT30;54931;52.098;21.006;2023-06-26T00:25:44;14.03;76.10
68128;SHT30;54931;52.098;21.006;2023-06-26T00:28:11;14.03;76.16
68128;SHT30;54931;52.098;21.006;2023-06-26T00:30:39;14.02;76.09
68128;SHT30;54931;52.098;21.006;2023-06-26T00:33:07;14.01;76.00
68128;SHT30;54931;52.098;21.006;2023-06-26T00:35:34;13.99;75.96
68128;SHT30;54931;52.098;21.006;2023-06-26T00:38:02;13.98;75.92
68128;SHT30;54931;52.098;21.006;2023-06-26T00:40:30;13.97;75.97
68128;SHT30;54931;52.098;21.006;2023-06-26T00:42:57;13.96;76.09
68128;SHT30;54931;52.098;21.006;2023-06-26T00:45:25;13.95;76.04
68128;SHT30;54931;52.098;21.006;2023-06-26T00:47:53;13.93;76.01
68128;SHT30;54931;52.098;21.006;2023-06-26T00:50:20;13.92;76.00
68128;SHT30;54931;52.098;21.006;2023-06-26T00:52:48;13.90;76.04
68128;SHT30;54931;52.098;21.006;2023-06-26T00:55:16;13.89;76.08
68128;SHT30;54931;52.098;21.006;2023-06-26T00:57:45;13.88;76.09
68128;SHT30;54931;52.098;21.006;2023-06-26T01:00:13;13.87;76.20
68128;SHT30;54931;52.098;21.006;2023-06-26T01:02:42;13.88;76.20
68128;SHT30;54931;52.098;21.006;2023-06-26T01:05:10;13.87;76.14
68128;SHT30;54931;52.098;21.006;2023-06-26T01:07:40;13.85;76.18
68128;SHT30;54931;52.098;21.006;2023-06-26T01:10:07;13.85;76.24
68128;SHT30;54931;52.098;21.006;2023-06-26T01:12:36;13.85;76.30
68128;SHT30;54931;52.098;21.006;2023-06-26T01:15:06;13.83;76.24
68128;SHT30;54931;52.098;21.006;2023-06-26T01:17:36;13.82;76.27
68128;SHT30;54931;52.098;21.006;2023-06-26T01:20:05;13.80;76.34
68128;SHT30;54931;52.098;21.006;2023-06-26T01:28:05;13.72;76.57
68128;SHT30;54931;52.098;21.006;2023-06-26T01:30:37;13.72;76.61
68128;SHT30;54931;52.098;21.006;2023-06-26T01:33:12;13.69;76.65
68128;SHT30;54931;52.098;21.006;2023-06-26T01:35:42;13.67;76.65
68128;SHT30;54931;52.098;21.006;2023-06-26T01:38:13;13.63;76.61
68128;SHT30;54931;52.098;21.006;2023-06-26T01:40:44;13.57;76.75
68128;SHT30;54931;52.098;21.006;2023-06-26T01:43:18;13.53;76.81
68128;SHT30;54931;52.098;21.006;2023-06-26T01:45:54;13.48;76.86
68128;SHT30;54931;52.098;21.006;2023-06-26T01:48:31;13.44;76.98
68128;SHT30;54931;52.098;21.006;2023-06-26T01:51:23;13.40;77.14
68128;SHT30;54931;52.098;21.006;2023-06-26T01:53:59;13.39;77.23
68128;SHT30;54931;52.098;21.006;2023-06-26T01:56:28;13.38;77.29
68128;SHT30;54931;52.098;21.006;2023-06-26T01:58:57;13.37;77.40
68128;SHT30;54931;52.098;21.006;2023-06-26T02:01:26;13.35;77.42
68128;SHT30;54931;52.098;21.006;2023-06-26T02:03:54;13.33;77.59
68128;SHT30;54931;52.098;21.006;2023-06-26T02:06:21;13.32;77.68
68128;SHT30;54931;52.098;21.006;2023-06-26T02:08:49;13.31;77.74
68128;SHT30;54931;52.098;21.006;2023-06-26T02:11:16;13.29;77.79
68128;SHT30;54931;52.098;21.006;2023-06-26T02:13:44;13.27;77.78
68128;SHT30;54931;52.098;21.006;2023-06-26T02:16:12;13.25;77.82
68128;SHT30;54931;52.098;21.006;2023-06-26T02:18:40;13.22;77.92
68128;SHT30;54931;52.098;21.006;2023-06-26T02:21:08;13.19;77.89
68128;SHT30;54931;52.098;21.006;2023-06-26T02:23:36;13.17;78.01
68128;SHT30;54931;52.098;21.006;2023-06-26T02:26:04;13.15;78.12
68128;SHT30;54931;52.098;21.006;2023-06-26T02:28:32;13.14;78.19
68128;SHT30;54931;52.098;21.006;2023-06-26T02:31:01;13.13;78.27
68128;SHT30;54931;52.098;21.006;2023-06-26T02:33:29;13.13;78.32
68128;SHT30;54931;52.098;21.006;2023-06-26T02:35:56;13.14;78.43
68128;SHT30;54931;52.098;21.006;2023-06-26T02:38:24;13.14;78.44
68128;SHT30;54931;52.098;21.006;2023-06-26T02:40:51;13.15;78.49
68128;SHT30;54931;52.098;21.006;2023-06-26T02:43:19;13.15;78.50
68128;SHT30;54931;52.098;21.006;2023-06-26T02:45:46;13.15;78.57
68128;SHT30;54931;52.098;21.006;2023-06-26T02:48:14;13.15;78.61
68128;SHT30;54931;52.098;21.006;2023-06-26T02:50:42;13.17;78.69
68128;SHT30;54931;52.098;21.006;2023-06-26T02:53:12;13.18;78.67
68128;SHT30;54931;52.098;21.006;2023-06-26T02:55:40;13.20;78.61
68128;SHT30;54931;52.098;21.006;2023-06-26T02:58:07;13.21;78.65
68128;SHT30;54931;52.098;21.006;2023-06-26T03:00:35;13.23;78.64
68128;SHT30;54931;52.098;21.006;2023-06-26T03:03:08;13.26;78.68
68128;SHT30;54931;52.098;21.006;2023-06-26T03:05:36;13.29;78.72
68128;SHT30;54931;52.098;21.006;2023-06-26T03:08:04;13.35;78.80
68128;SHT30;54931;52.098;21.006;2023-06-26T03:10:31;13.40;78.79
68128;SHT30;54931;52.098;21.006;2023-06-26T03:12:59;13.45;78.74
68128;SHT30;54931;52.098;21.006;2023-06-26T03:15:26;13.52;78.65
68128;SHT30;54931;52.098;21.006;2023-06-26T03:17:55;13.60;78.52
68128;SHT30;54931;52.098;21.006;2023-06-26T03:20:22;13.69;78.44
68128;SHT30;54931;52.098;21.006;2023-06-26T03:22:49;13.80;78.35
68128;SHT30;54931;52.098;21.006;2023-06-26T03:25:17;13.98;78.12
68128;SHT30;54931;52.098;21.006;2023-06-26T03:27:45;14.18;77.78
68128;SHT30;54931;52.098;21.006;2023-06-26T03:30:13;14.44;77.31
68128;SHT30;54931;52.098;21.006;2023-06-26T03:32:41;14.73;76.81
68128;SHT30;54931;52.098;21.006;2023-06-26T03:35:09;15.02;76.24
68128;SHT30;54931;52.098;21.006;2023-06-26T03:37:37;15.31;75.86
68128;SHT30;54931;52.098;21.006;2023-06-26T03:40:05;15.61;75.59
68128;SHT30;54931;52.098;21.006;2023-06-26T03:42:34;15.89;74.98
68128;SHT30;54931;52.098;21.006;2023-06-26T03:45:02;16.15;74.35
68128;SHT30;54931;52.098;21.006;2023-06-26T03:47:31;16.37;73.57
68128;SHT30;54931;52.098;21.006;2023-06-26T03:49:59;16.61;72.81
68128;SHT30;54931;52.098;21.006;2023-06-26T03:52:28;16.88;72.46
68128;SHT30;54931;52.098;21.006;2023-06-26T03:54:57;17.17;72.01
68128;SHT30;54931;52.098;21.006;2023-06-26T03:57:25;17.42;71.19
68128;SHT30;54931;52.098;21.006;2023-06-26T03:59:53;17.63;70.03
68128;SHT30;54931;52.098;21.006;2023-06-26T04:02:20;17.81;69.08
68128;SHT30;54931;52.098;21.006;2023-06-26T04:04:48;17.99;68.48
68128;SHT30;54931;52.098;21.006;2023-06-26T04:07:16;18.15;67.80
68128;SHT30;54931;52.098;21.006;2023-06-26T04:09:43;18.31;67.31
68128;SHT30;54931;52.098;21.006;2023-06-26T04:12:11;18.46;66.87
68128;SHT30;54931;52.098;21.006;2023-06-26T04:14:38;18.64;66.56
68128;SHT30;54931;52.098;21.006;2023-06-26T04:17:06;18.85;66.04
68128;SHT30;54931;52.098;21.006;2023-06-26T04:19:35;19.04;65.56
68128;SHT30;54931;52.098;21.006;2023-06-26T04:22:03;19.27;65.39
68128;SHT30;54931;52.098;21.006;2023-06-26T04:24:31;19.50;64.73
68128;SHT30;54931;52.098;21.006;2023-06-26T04:26:58;19.75;64.61
68128;SHT30;54931;52.098;21.006;2023-06-26T04:29:26;20.01;63.99
68128;SHT30;54931;52.098;21.006;2023-06-26T04:31:55;20.22;62.88
68128;SHT30;54931;52.098;21.006;2023-06-26T04:34:25;20.39;62.46
68128;SHT30;54931;52.098;21.006;2023-06-26T04:36:55;20.60;61.97
68128;SHT30;54931;52.098;21.006;2023-06-26T04:39:22;20.82;61.50
68128;SHT30;54931;52.098;21.006;2023-06-26T04:41:50;21.08;61.24
68128;SHT30;54931;52.098;21.006;2023-06-26T04:44:18;21.32;60.34
68128;SHT30;54931;52.098;21.006;2023-06-26T04:46:46;21.55;59.71
68128;SHT30;54931;52.098;21.006;2023-06-26T04:49:13;21.72;59.02
68128;SHT30;54931;52.098;21.006;2023-06-26T04:51:45;21.96;58.59
68128;SHT30;54931;52.098;21.006;2023-06-26T04:54:13;22.19;58.02
68128;SHT30;54931;52.098;21.006;2023-06-26T04:56:41;22.45;57.93
68128;SHT30;54931;52.098;21.006;2023-06-26T04:59:09;22.76;57.66
68128;SHT30;54931;52.098;21.006;2023-06-26T05:01:41;23.13;56.83
68128;SHT30;54931;52.098;21.006;2023-06-26T05:04:10;23.42;56.29
68128;SHT30;54931;52.098;21.006;2023-06-26T05:06:38;23.73;55.68
68128;SHT30;54931;52.098;21.006;2023-06-26T05:09:05;23.98;54.13
68128;SHT30;54931;52.098;21.006;2023-06-26T05:11:33;24.07;53.17
68128;SHT30;54931;52.098;21.006;2023-06-26T05:14:01;24.06;52.80
68128;SHT30;54931;52.098;21.006;2023-06-26T05:16:29;24.17;53.25
68128;SHT30;54931;52.098;21.006;2023-06-26T05:18:56;24.30;52.29
68128;SHT30;54931;52.098;21.006;2023-06-26T05:21:24;24.43;52.65
68128;SHT30;54931;52.098;21.006;2023-06-26T05:23:52;24.50;51.91
68128;SHT30;54931;52.098;21.006;2023-06-26T05:26:25;24.56;52.03
68128;SHT30;54931;52.098;21.006;2023-06-26T05:28:54;24.80;51.90
68128;SHT30;54931;52.098;21.006;2023-06-26T05:31:23;25.03;51.36
68128;SHT30;54931;52.098;21.006;2023-06-26T05:33:51;25.28;51.12
68128;SHT30;54931;52.098;21.006;2023-06-26T05:36:22;25.48;49.75
68128;SHT30;54931;52.098;21.006;2023-06-26T05:38:53;25.58;49.72
68128;SHT30;54931;52.098;21.006;2023-06-26T05:41:22;25.80;49.07
68128;SHT30;54931;52.098;21.006;2023-06-26T05:43:51;25.99;48.60
68128;SHT30;54931;52.098;21.006;2023-06-26T05:46:21;26.19;47.89
68128;SHT30;54931;52.098;21.006;2023-06-26T05:48:49;26.35;47.44
68128;SHT30;54931;52.098;21.006;2023-06-26T05:51:17;26.51;46.73
68128;SHT30;54931;52.098;21.006;2023-06-26T05:53:45;26.67;46.50
68128;SHT30;54931;52.098;21.006;2023-06-26T05:56:13;26.92;47.41
68128;SHT30;54931;52.098;21.006;2023-06-26T05:58:41;27.07;46.63
68128;SHT30;54931;52.098;21.006;2023-06-26T06:01:11;27.15;47.13
68128;SHT30;54931;52.098;21.006;2023-06-26T06:03:38;27.48;47.33
68128;SHT30;54931;52.098;21.006;2023-06-26T06:06:07;27.80;47.20
68128;SHT30;54931;52.098;21.006;2023-06-26T06:08:34;27.95;45.88
68128;SHT30;54931;52.098;21.006;2023-06-26T06:11:02;28.00;45.41
68128;SHT30;54931;52.098;21.006;2023-06-26T06:13:29;27.97;44.57
68128;SHT30;54931;52.098;21.006;2023-06-26T06:15:57;27.80;44.07
68128;SHT30;54931;52.098;21.006;2023-06-26T06:18:25;27.72;44.73
68128;SHT30;54931;52.098;21.006;2023-06-26T06:20:53;27.89;45.38
68128;SHT30;54931;52.098;21.006;2023-06-26T06:23:20;28.15;45.02
68128;SHT30;54931;52.098;21.006;2023-06-26T06:25:49;28.27;44.35
68128;SHT30;54931;52.098;21.006;2023-06-26T06:28:16;28.31;43.58
68128;SHT30;54931;52.098;21.006;2023-06-26T06:30:44;28.43;44.35
68128;SHT30;54931;52.098;21.006;2023-06-26T06:33:14;28.65;43.45
68128;SHT30;54931;52.098;21.006;2023-06-26T06:35:41;28.64;43.39
68128;SHT30;54931;52.098;21.006;2023-06-26T06:38:09;28.65;43.23
68128;SHT30;54931;52.098;21.006;2023-06-26T06:40:37;28.70;43.16
68128;SHT30;54931;52.098;21.006;2023-06-26T06:43:05;28.82;42.88
68128;SHT30;54931;52.098;21.006;2023-06-26T06:45:32;28.93;42.32
68128;SHT30;54931;52.098;21.006;2023-06-26T06:48:00;28.94;41.73
68128;SHT30;54931;52.098;21.006;2023-06-26T06:50:28;28.96;41.95
68128;SHT30;54931;52.098;21.006;2023-06-26T06:52:55;29.03;41.65
68128;SHT30;54931;52.098;21.006;2023-06-26T06:55:24;29.17;41.69
68128;SHT30;54931;52.098;21.006;2023-06-26T06:57:52;29.30;41.83
68128;SHT30;54931;52.098;21.006;2023-06-26T07:00:20;29.45;41.52
68128;SHT30;54931;52.098;21.006;2023-06-26T07:02:48;29.69;40.72
68128;SHT30;54931;52.098;21.006;2023-06-26T07:05:16;29.72;39.60
68128;SHT30;54931;52.098;21.006;2023-06-26T07:07:44;29.67;38.39
68128;SHT30;54931;52.098;21.006;2023-06-26T07:10:12;29.62;37.74
68128;SHT30;54931;52.098;21.006;2023-06-26T07:12:41;29.63;38.30
68128;SHT30;54931;52.098;21.006;2023-06-26T07:15:08;29.79;38.84
68128;SHT30;54931;52.098;21.006;2023-06-26T07:17:37;29.93;37.87
68128;SHT30;54931;52.098;21.006;2023-06-26T07:20:05;29.95;37.71
68128;SHT30;54931;52.098;21.006;2023-06-26T07:22:36;29.94;37.86
68128;SHT30;54931;52.098;21.006;2023-06-26T07:25:04;30.02;38.64
68128;SHT30;54931;52.098;21.006;2023-06-26T07:27:37;30.24;38.91
68128;SHT30;54931;52.098;21.006;2023-06-26T07:30:06;30.41;37.80
68128;SHT30;54931;52.098;21.006;2023-06-26T07:32:38;30.17;38.00
68128;SHT30;54931;52.098;21.006;2023-06-26T07:35:09;29.98;37.50
68128;SHT30;54931;52.098;21.006;2023-06-26T07:37:37;29.79;37.88
68128;SHT30;54931;52.098;21.006;2023-06-26T07:40:05;29.86;37.27
68128;SHT30;54931;52.098;21.006;2023-06-26T07:42:34;29.85;37.65
68128;SHT30;54931;52.098;21.006;2023-06-26T07:45:02;29.81;38.53
68128;SHT30;54931;52.098;21.006;2023-06-26T07:47:37;29.91;38.60
68128;SHT30;54931;52.098;21.006;2023-06-26T07:50:06;29.99;37.85
68128;SHT30;54931;52.098;21.006;2023-06-26T07:52:35;29.99;37.59
68128;SHT30;54931;52.098;21.006;2023-06-26T07:55:03;29.93;36.96
68128;SHT30;54931;52.098;21.006;2023-06-26T07:57:31;29.89;36.36
68128;SHT30;54931;52.098;21.006;2023-06-26T07:59:59;29.75;36.90
68128;SHT30;54931;52.098;21.006;2023-06-26T08:02:27;29.73;37.91
68128;SHT30;54931;52.098;21.006;2023-06-26T08:04:54;29.85;37.39
68128;SHT30;54931;52.098;21.006;2023-06-26T08:07:22;29.99;38.69
68128;SHT30;54931;52.098;21.006;2023-06-26T08:09:50;30.17;37.63
68128;SHT30;54931;52.098;21.006;2023-06-26T08:12:17;30.24;36.38
68128;SHT30;54931;52.098;21.006;2023-06-26T08:14:45;30.15;35.28
68128;SHT30;54931;52.098;21.006;2023-06-26T08:17:13;30.15;35.94
68128;SHT30;54931;52.098;21.006;2023-06-26T08:19:40;30.33;35.94
68128;SHT30;54931;52.098;21.006;2023-06-26T08:22:07;30.48;36.03
68128;SHT30;54931;52.098;21.006;2023-06-26T08:24:35;30.64;36.63
68128;SHT30;54931;52.098;21.006;2023-06-26T08:27:04;30.83;36.20
68128;SHT30;54931;52.098;21.006;2023-06-26T08:29:32;31.01;36.67
68128;SHT30;54931;52.098;21.006;2023-06-26T08:32:00;31.33;35.92
68128;SHT30;54931;52.098;21.006;2023-06-26T08:34:29;31.62;35.00
68128;SHT30;54931;52.098;21.006;2023-06-26T08:36:56;31.82;34.18
68128;SHT30;54931;52.098;21.006;2023-06-26T08:39:24;31.77;32.20
68128;SHT30;54931;52.098;21.006;2023-06-26T08:41:52;31.65;31.76
68128;SHT30;54931;52.098;21.006;2023-06-26T08:44:20;31.51;31.66
68128;SHT30;54931;52.098;21.006;2023-06-26T08:46:51;31.39;32.46
68128;SHT30;54931;52.098;21.006;2023-06-26T08:50:21;31.46;32.41
68128;SHT30;54931;52.098;21.006;2023-06-26T08:52:30;31.58;30.80
68128;SHT30;54931;52.098;21.006;2023-06-26T08:55:06;31.44;30.14
68128;SHT30;54931;52.098;21.006;2023-06-26T08:57:38;31.29;30.36
68128;SHT30;54931;52.098;21.006;2023-06-26T09:00:06;31.08;30.03
68128;SHT30;54931;52.098;21.006;2023-06-26T09:02:36;30.94;30.79
68128;SHT30;54931;52.098;21.006;2023-06-26T09:05:05;30.89;31.94
68128;SHT30;54931;52.098;21.006;2023-06-26T09:07:34;31.01;32.36
68128;SHT30;54931;52.098;21.006;2023-06-26T09:10:02;31.23;32.06
68128;SHT30;54931;52.098;21.006;2023-06-26T09:12:31;31.31;30.06
68128;SHT30;54931;52.098;21.006;2023-06-26T09:14:59;31.12;30.16
68128;SHT30;54931;52.098;21.006;2023-06-26T09:17:38;31.05;31.22
68128;SHT30;54931;52.098;21.006;2023-06-26T09:20:09;31.09;31.53
68128;SHT30;54931;52.098;21.006;2023-06-26T09:22:37;31.13;32.76
68128;SHT30;54931;52.098;21.006;2023-06-26T09:25:09;31.20;32.25
68128;SHT30;54931;52.098;21.006;2023-06-26T09:27:37;31.18;31.65
68128;SHT30;54931;52.098;21.006;2023-06-26T09:30:06;31.10;31.74
68128;SHT30;54931;52.098;21.006;2023-06-26T09:32:35;31.25;31.66
68128;SHT30;54931;52.098;21.006;2023-06-26T09:35:04;31.51;31.16
68128;SHT30;54931;52.098;21.006;2023-06-26T09:37:32;31.63;30.85
68128;SHT30;54931;52.098;21.006;2023-06-26T09:40:02;31.65;29.74
68128;SHT30;54931;52.098;21.006;2023-06-26T09:42:31;31.45;28.21
68128;SHT30;54931;52.098;21.006;2023-06-26T09:44:59;31.45;29.29
68128;SHT30;54931;52.098;21.006;2023-06-26T09:47:29;31.57;29.94
68128;SHT30;54931;52.098;21.006;2023-06-26T09:50:04;31.78;30.40
68128;SHT30;54931;52.098;21.006;2023-06-26T09:52:32;32.02;31.14
68128;SHT30;54931;52.098;21.006;2023-06-26T09:55:08;32.00;29.51
68128;SHT30;54931;52.098;21.006;2023-06-26T09:57:37;31.66;28.95
68128;SHT30;54931;52.098;21.006;2023-06-26T10:00:06;31.45;30.05
68128;SHT30;54931;52.098;21.006;2023-06-26T10:02:36;31.51;30.86
68128;SHT30;54931;52.098;21.006;2023-06-26T10:05:04;31.62;30.30
68128;SHT30;54931;52.098;21.006;2023-06-26T10:07:32;31.78;30.81
68128;SHT30;54931;52.098;21.006;2023-06-26T10:10:02;32.11;30.44
68128;SHT30;54931;52.098;21.006;2023-06-26T10:12:34;32.20;29.86
68128;SHT30;54931;52.098;21.006;2023-06-26T10:15:02;32.25;29.73
68128;SHT30;54931;52.098;21.006;2023-06-26T10:17:34;32.21;30.12
68128;SHT30;54931;52.098;21.006;2023-06-26T10:20:05;32.11;30.09
68128;SHT30;54931;52.098;21.006;2023-06-26T10:22:40;32.17;29.81
68128;SHT30;54931;52.098;21.006;2023-06-26T10:25:14;32.16;29.71
68128;SHT30;54931;52.098;21.006;2023-06-26T10:27:50;32.28;30.72
68128;SHT30;54931;52.098;21.006;2023-06-26T10:30:24;32.10;30.19
68128;SHT30;54931;52.098;21.006;2023-06-26T10:33:00;31.75;29.53
68128;SHT30;54931;52.098;21.006;2023-06-26T10:35:30;31.47;30.83
68128;SHT30;54931;52.098;21.006;2023-06-26T10:38:02;31.37;30.32
68128;SHT30;54931;52.098;21.006;2023-06-26T10:40:40;31.50;31.65
68128;SHT30;54931;52.098;21.006;2023-06-26T10:43:15;31.54;29.57
68128;SHT30;54931;52.098;21.006;2023-06-26T10:48:22;31.50;31.83
68128;SHT30;54931;52.098;21.006;2023-06-26T10:51:05;31.68;31.91
68128;SHT30;54931;52.098;21.006;2023-06-26T10:53:42;31.77;30.18
68128;SHT30;54931;52.098;21.006;2023-06-26T10:56:17;31.68;30.28
68128;SHT30;54931;52.098;21.006;2023-06-26T10:58:47;31.77;31.31
68128;SHT30;54931;52.098;21.006;2023-06-26T11:01:19;31.80;30.68
68128;SHT30;54931;52.098;21.006;2023-06-26T11:06:37;31.61;30.27
68128;SHT30;54931;52.098;21.006;2023-06-26T11:09:09;31.44;30.58
68128;SHT30;54931;52.098;21.006;2023-06-26T11:14:26;30.92;31.41
68128;SHT30;54931;52.098;21.006;2023-06-26T11:16:55;30.78;32.33
68128;SHT30;54931;52.098;21.006;2023-06-26T11:19:25;30.65;31.36
68128;SHT30;54931;52.098;21.006;2023-06-26T11:21:59;30.50;32.14
68128;SHT30;54931;52.098;21.006;2023-06-26T11:24:31;30.61;32.70
68128;SHT30;54931;52.098;21.006;2023-06-26T11:27:00;30.82;31.43
68128;SHT30;54931;52.098;21.006;2023-06-26T11:29:30;30.94;32.30
68128;SHT30;54931;52.098;21.006;2023-06-26T11:31:59;31.09;31.67
68128;SHT30;54931;52.098;21.006;2023-06-26T11:34:30;31.22;31.42
68128;SHT30;54931;52.098;21.006;2023-06-26T11:36:58;31.26;31.54
68128;SHT30;54931;52.098;21.006;2023-06-26T11:39:28;31.38;31.60
68128;SHT30;54931;52.098;21.006;2023-06-26T11:41:56;31.41;31.05
68128;SHT30;54931;52.098;21.006;2023-06-26T11:44:28;31.31;30.74
68128;SHT30;54931;52.098;21.006;2023-06-26T11:46:58;31.11;30.72
68128;SHT30;54931;52.098;21.006;2023-06-26T11:49:26;30.65;30.66
68128;SHT30;54931;52.098;21.006;2023-06-26T11:51:56;30.26;31.92
68128;SHT30;54931;52.098;21.006;2023-06-26T11:54:24;30.18;31.39
68128;SHT30;54931;52.098;21.006;2023-06-26T11:56:54;30.12;31.93
68128;SHT30;54931;52.098;21.006;2023-06-26T11:59:35;30.20;32.15
68128;SHT30;54931;52.098;21.006;2023-06-26T12:02:07;30.28;31.38
68128;SHT30;54931;52.098;21.006;2023-06-26T12:04:37;30.28;30.69
68128;SHT30;54931;52.098;21.006;2023-06-26T12:07:08;30.44;31.11
68128;SHT30;54931;52.098;21.006;2023-06-26T12:09:44;30.63;31.14
68128;SHT30;54931;52.098;21.006;2023-06-26T12:12:15;30.82;31.43
68128;SHT30;54931;52.098;21.006;2023-06-26T12:14:45;30.99;30.03
68128;SHT30;54931;52.098;21.006;2023-06-26T12:17:13;30.93;30.49
68128;SHT30;54931;52.098;21.006;2023-06-26T12:19:45;31.00;29.78
68128;SHT30;54931;52.098;21.006;2023-06-26T12:22:16;30.94;28.58
68128;SHT30;54931;52.098;21.006;2023-06-26T12:24:45;30.75;27.80
68128;SHT30;54931;52.098;21.006;2023-06-26T12:27:15;30.59;29.70
68128;SHT30;54931;52.098;21.006;2023-06-26T12:29:50;30.60;29.88
68128;SHT30;54931;52.098;21.006;2023-06-26T12:32:27;30.52;29.48
68128;SHT30;54931;52.098;21.006;2023-06-26T12:34:56;30.48;29.12
68128;SHT30;54931;52.098;21.006;2023-06-26T12:37:25;30.46;29.12
68128;SHT30;54931;52.098;21.006;2023-06-26T12:39:56;30.45;28.82
68128;SHT30;54931;52.098;21.006;2023-06-26T12:42:25;30.48;28.82
68128;SHT30;54931;52.098;21.006;2023-06-26T12:44:55;30.49;28.75
68128;SHT30;54931;52.098;21.006;2023-06-26T12:47:26;30.41;28.17
68128;SHT30;54931;52.098;21.006;2023-06-26T12:49:57;30.29;28.16
68128;SHT30;54931;52.098;21.006;2023-06-26T12:52:25;30.26;28.63
68128;SHT30;54931;52.098;21.006;2023-06-26T12:54:53;30.21;29.06
68128;SHT30;54931;52.098;21.006;2023-06-26T12:57:23;30.23;30.13
68128;SHT30;54931;52.098;21.006;2023-06-26T12:59:51;30.27;29.91
68128;SHT30;54931;52.098;21.006;2023-06-26T13:02:19;30.45;30.16
68128;SHT30;54931;52.098;21.006;2023-06-26T13:04:47;30.47;28.72
68128;SHT30;54931;52.098;21.006;2023-06-26T13:07:15;30.34;29.24
68128;SHT30;54931;52.098;21.006;2023-06-26T13:09:43;30.29;29.76
68128;SHT30;54931;52.098;21.006;2023-06-26T13:12:11;30.21;29.70
68128;SHT30;54931;52.098;21.006;2023-06-26T13:14:39;30.18;30.18
68128;SHT30;54931;52.098;21.006;2023-06-26T13:17:08;30.27;31.05
68128;SHT30;54931;52.098;21.006;2023-06-26T13:19:35;30.42;30.88
68128;SHT30;54931;52.098;21.006;2023-06-26T13:22:04;30.43;29.83
68128;SHT30;54931;52.098;21.006;2023-06-26T13:24:32;30.33;29.88
68128;SHT30;54931;52.098;21.006;2023-06-26T13:27:00;30.12;29.84
68128;SHT30;54931;52.098;21.006;2023-06-26T13:29:28;29.98;29.60
68128;SHT30;54931;52.098;21.006;2023-06-26T13:31:56;30.03;30.55
68128;SHT30;54931;52.098;21.006;2023-06-26T13:34:24;30.20;29.63
68128;SHT30;54931;52.098;21.006;2023-06-26T13:36:55;30.24;28.84
68128;SHT30;54931;52.098;21.006;2023-06-26T13:39:24;30.19;29.49
68128;SHT30;54931;52.098;21.006;2023-06-26T13:41:52;30.22;30.94
68128;SHT30;54931;52.098;21.006;2023-06-26T13:44:19;30.36;30.57
68128;SHT30;54931;52.098;21.006;2023-06-26T13:46:47;30.48;29.65
68128;SHT30;54931;52.098;21.006;2023-06-26T13:49:15;30.47;29.38
68128;SHT30;54931;52.098;21.006;2023-06-26T13:51:42;30.47;29.99
68128;SHT30;54931;52.098;21.006;2023-06-26T13:54:13;30.54;29.94
68128;SHT30;54931;52.098;21.006;2023-06-26T13:56:41;30.52;29.45
68128;SHT30;54931;52.098;21.006;2023-06-26T13:59:08;30.52;30.09
68128;SHT30;54931;52.098;21.006;2023-06-26T14:01:36;30.58;30.66
68128;SHT30;54931;52.098;21.006;2023-06-26T14:04:03;30.59;30.82
68128;SHT30;54931;52.098;21.006;2023-06-26T14:06:31;30.45;30.84
68128;SHT30;54931;52.098;21.006;2023-06-26T14:08:59;30.38;30.26
68128;SHT30;54931;52.098;21.006;2023-06-26T14:11:27;30.34;30.38
68128;SHT30;54931;52.098;21.006;2023-06-26T14:13:55;30.32;30.14
68128;SHT30;54931;52.098;21.006;2023-06-26T14:16:22;30.31;30.76
68128;SHT30;54931;52.098;21.006;2023-06-26T14:18:53;30.28;30.78
68128;SHT30;54931;52.098;21.006;2023-06-26T14:21:20;30.29;31.26
68128;SHT30;54931;52.098;21.006;2023-06-26T14:23:48;30.19;30.66
68128;SHT30;54931;52.098;21.006;2023-06-26T14:26:16;30.11;31.57
68128;SHT30;54931;52.098;21.006;2023-06-26T14:28:44;30.05;32.34
68128;SHT30;54931;52.098;21.006;2023-06-26T14:31:12;29.86;31.37
68128;SHT30;54931;52.098;21.006;2023-06-26T14:33:40;29.62;32.45
68128;SHT30;54931;52.098;21.006;2023-06-26T14:36:08;29.45;32.50
68128;SHT30;54931;52.098;21.006;2023-06-26T14:38:35;29.46;33.68
68128;SHT30;54931;52.098;21.006;2023-06-26T14:41:03;29.69;32.71
68128;SHT30;54931;52.098;21.006;2023-06-26T14:43:30;29.88;32.41
68128;SHT30;54931;52.098;21.006;2023-06-26T14:45:58;29.93;31.28
68128;SHT30;54931;52.098;21.006;2023-06-26T14:48:25;29.98;31.62
68128;SHT30;54931;52.098;21.006;2023-06-26T14:50:53;30.07;31.46
68128;SHT30;54931;52.098;21.006;2023-06-26T14:53:21;30.13;30.64
68128;SHT30;54931;52.098;21.006;2023-06-26T14:55:48;30.24;31.80
68128;SHT30;54931;52.098;21.006;2023-06-26T14:58:16;30.41;30.92
68128;SHT30;54931;52.098;21.006;2023-06-26T15:00:44;30.52;30.74
68128;SHT30;54931;52.098;21.006;2023-06-26T15:03:12;30.67;31.14
68128;SHT30;54931;52.098;21.006;2023-06-26T15:05:40;30.89;30.69
68128;SHT30;54931;52.098;21.006;2023-06-26T15:08:07;31.03;30.88
68128;SHT30;54931;52.098;21.006;2023-06-26T15:10:36;31.20;30.40
68128;SHT30;54931;52.098;21.006;2023-06-26T15:13:04;31.28;29.96
68128;SHT30;54931;52.098;21.006;2023-06-26T15:15:32;31.29;29.62
68128;SHT30;54931;52.098;21.006;2023-06-26T15:18:00;31.07;29.34
68128;SHT30;54931;52.098;21.006;2023-06-26T15:20:28;30.90;29.96
68128;SHT30;54931;52.098;21.006;2023-06-26T15:22:55;30.83;30.03
68128;SHT30;54931;52.098;21.006;2023-06-26T15:25:25;30.72;28.89
68128;SHT30;54931;52.098;21.006;2023-06-26T15:27:55;30.70;29.79
68128;SHT30;54931;52.098;21.006;2023-06-26T15:30:23;30.79;30.50
68128;SHT30;54931;52.098;21.006;2023-06-26T15:32:50;30.93;30.51
68128;SHT30;54931;52.098;21.006;2023-06-26T15:35:18;31.04;29.94
68128;SHT30;54931;52.098;21.006;2023-06-26T15:37:46;31.03;30.22
68128;SHT30;54931;52.098;21.006;2023-06-26T15:40:15;31.11;30.03